Time;durP1;ratioP1;P1;durP2;ratioP2;P2;SDS_P1;SDS_P2;PMS_P1;PMS_P2;Temp;Humidity;BMP_temperature;BMP_pressure;BME280_temperature;BME280_humidity;BME280_pressure;Samples;Min_cycle;Max_cycle;Signal;HPM_P1;HPM_P2
2023/05/31 04:01:57;;;;;;;;;;;15.00;78.60;;;;;;5285023;23;19953;-66
2023/05/31 04:04:23;;;;;;;;;;;15.00;78.60;;;;;;4996672;28;19913;-65
2023/05/31 04:06:48;;;;;;;;;;;14.90;78.90;;;;;;4994854;28;20360;-66
2023/05/31 04:09:14;;;;;;;;;;;14.90;79.10;;;;;;4994599;28;19916;-66
2023/05/31 04:11:39;;;;;;;;;;;14.90;79.30;;;;;;4994712;28;19910;-66
2023/05/31 04:14:05;;;;;;;;;;;14.90;79.20;;;;;;4995937;28;20000;-66
2023/05/31 04:16:30;;;;;;;;;;;14.90;79.30;;;;;;5007202;23;19980;-71
2023/05/31 04:18:56;;;;;;;;;;;15.00;79.40;;;;;;4975006;28;19918;-71
2023/05/31 04:21:21;;;;;;;;;;;15.00;79.30;;;;;;4976134;28;19952;-71
2023/05/31 04:23:46;;;;;;;;;;;15.00;79.40;;;;;;4976512;28;19911;-71
2023/05/31 04:26:16;;;;;;;;;;;15.10;79.50;;;;;;4991991;28;20339;-71
2023/05/31 04:28:42;;;;;;;;;;;15.00;79.70;;;;;;4976488;28;19910;-71
2023/05/31 04:31:08;;;;;;;;;;;15.00;79.80;;;;;;4977132;28;19910;-71
2023/05/31 04:33:35;;;;;;;;;;;15.00;80.20;;;;;;4976329;28;20282;-71
2023/05/31 04:36:03;;;;;;;;;;;15.00;80.40;;;;;;4977698;28;19965;-71
2023/05/31 04:38:29;;;;;;;;;;;14.90;80.70;;;;;;4977595;28;19966;-72
2023/05/31 04:40:56;;;;;;;;;;;14.90;80.90;;;;;;4976563;28;19914;-71
2023/05/31 04:43:22;;;;;;;;;;;14.90;81.30;;;;;;4977254;28;19913;-71
2023/05/31 04:45:48;;;;;;;;;;;14.90;81.60;;;;;;4985155;28;19920;-71
2023/05/31 04:48:15;;;;;;;;;;;14.90;81.30;;;;;;4995047;28;19953;-71
2023/05/31 04:50:40;;;;;;;;;;;14.90;81.50;;;;;;4994843;28;19917;-71
2023/05/31 04:53:06;;;;;;;;;;;14.90;81.40;;;;;;4994208;28;19910;-71
2023/05/31 04:55:31;;;;;;;;;;;14.90;81.80;;;;;;4995825;28;20004;-71
2023/05/31 04:57:57;;;;;;;;;;;14.90;81.90;;;;;;4995136;28;19986;-70
2023/05/31 05:00:22;;;;;;;;;;;15.10;81.80;;;;;;4994963;28;19925;-71
2023/05/31 05:02:48;;;;;;;;;;;15.10;81.60;;;;;;4998009;28;19910;-70
2023/05/31 05:05:15;;;;;;;;;;;15.20;81.30;;;;;;4999029;28;19983;-72
2023/05/31 05:07:41;;;;;;;;;;;15.20;81.00;;;;;;4996673;28;19917;-71
2023/05/31 05:10:06;;;;;;;;;;;15.30;80.00;;;;;;4994331;28;19932;-71
2023/05/31 05:12:32;;;;;;;;;;;15.40;79.80;;;;;;4994862;28;19910;-72
2023/05/31 05:14:58;;;;;;;;;;;15.40;79.70;;;;;;4994305;28;19909;-70
2023/05/31 05:17:23;;;;;;;;;;;15.50;79.40;;;;;;4994920;28;19917;-73
2023/05/31 05:19:48;;;;;;;;;;;15.60;79.60;;;;;;4995369;28;19910;-72
2023/05/31 05:22:14;;;;;;;;;;;15.60;78.90;;;;;;4994292;28;19916;-70
2023/05/31 05:24:39;;;;;;;;;;;15.70;78.80;;;;;;4994738;28;19949;-71
2023/05/31 05:27:06;;;;;;;;;;;15.70;78.70;;;;;;4984572;28;19920;-71
2023/05/31 05:29:31;;;;;;;;;;;15.80;78.40;;;;;;4999664;28;19910;-72
2023/05/31 05:31:57;;;;;;;;;;;15.80;78.60;;;;;;4975001;28;19965;-71
2023/05/31 05:34:22;;;;;;;;;;;15.80;78.40;;;;;;4975202;28;19914;-72
2023/05/31 05:36:47;;;;;;;;;;;15.90;78.40;;;;;;4974849;28;19910;-71
2023/05/31 05:39:13;;;;;;;;;;;15.90;78.00;;;;;;4974290;28;20009;-71
2023/05/31 05:41:39;;;;;;;;;;;16.00;77.90;;;;;;4982723;28;20433;-70
2023/05/31 05:44:04;;;;;;;;;;;16.00;77.90;;;;;;4989324;28;20016;-71
2023/05/31 05:46:29;;;;;;;;;;;16.00;77.90;;;;;;4990347;28;19960;-70
2023/05/31 05:48:56;;;;;;;;;;;16.00;77.70;;;;;;4990067;28;19913;-71
2023/05/31 05:51:22;;;;;;;;;;;16.10;77.70;;;;;;4993232;28;20367;-70
2023/05/31 05:53:47;;;;;;;;;;;16.10;77.50;;;;;;4988656;28;20378;-70
2023/05/31 05:56:17;;;;;;;;;;;16.10;77.60;;;;;;4988430;28;19921;-69
2023/05/31 05:58:43;;;;;;;;;;;16.20;77.50;;;;;;4991455;28;19921;-72
2023/05/31 06:01:09;;;;;;;;;;;16.30;77.50;;;;;;4990523;28;19949;-69
2023/05/31 06:03:34;;;;;;;;;;;16.30;77.30;;;;;;4992001;28;19996;-69
2023/05/31 06:06:00;;;;;;;;;;;16.40;76.90;;;;;;4992190;28;19909;-70
2023/05/31 06:08:25;;;;;;;;;;;16.50;76.70;;;;;;4993335;28;19918;-71
2023/05/31 06:10:51;;;;;;;;;;;16.40;76.80;;;;;;4997557;28;19914;-70
2023/05/31 06:13:16;;;;;;;;;;;16.40;76.90;;;;;;4998329;28;19976;-71
2023/05/31 06:15:42;;;;;;;;;;;16.50;76.60;;;;;;4996392;28;19918;-71
2023/05/31 06:18:08;;;;;;;;;;;16.60;76.70;;;;;;4992202;28;20251;-72
2023/05/31 06:20:34;;;;;;;;;;;16.60;76.50;;;;;;4991227;28;19917;-71
2023/05/31 06:22:59;;;;;;;;;;;16.70;76.60;;;;;;4995558;28;19976;-69
2023/05/31 06:25:25;;;;;;;;;;;16.80;76.60;;;;;;4997744;28;19919;-71
2023/05/31 06:27:50;;;;;;;;;;;16.80;76.30;;;;;;4998125;28;19941;-71
2023/05/31 06:30:16;;;;;;;;;;;16.90;76.70;;;;;;4997581;28;19910;-71
2023/05/31 06:32:41;;;;;;;;;;;17.00;76.50;;;;;;4997728;28;20004;-71
2023/05/31 06:35:07;;;;;;;;;;;17.10;76.00;;;;;;4996391;28;20384;-72
2023/05/31 06:37:33;;;;;;;;;;;17.20;75.80;;;;;;4994139;28;19928;-70
2023/05/31 06:39:58;;;;;;;;;;;17.20;75.40;;;;;;5014135;28;19909;-70
2023/05/31 06:42:24;;;;;;;;;;;17.30;75.00;;;;;;4993530;28;19914;-71
2023/05/31 06:44:50;;;;;;;;;;;17.40;75.50;;;;;;5006359;28;19913;-70
2023/05/31 06:47:15;;;;;;;;;;;17.40;75.40;;;;;;5002810;28;20315;-71
2023/05/31 06:49:41;;;;;;;;;;;17.50;75.30;;;;;;4992409;28;19914;-68
2023/05/31 06:52:07;;;;;;;;;;;17.60;75.30;;;;;;5015268;28;20028;-68
2023/05/31 06:54:34;;;;;;;;;;;17.70;74.90;;;;;;4995964;28;19972;-70
2023/05/31 06:56:59;;;;;;;;;;;17.70;75.10;;;;;;4995854;28;19917;-70
2023/05/31 06:59:25;;;;;;;;;;;17.80;74.30;;;;;;4995940;28;19910;-69
2023/05/31 07:01:52;;;;;;;;;;;17.80;74.50;;;;;;4996788;28;19941;-69
2023/05/31 07:04:18;;;;;;;;;;;17.90;74.70;;;;;;4997322;28;19917;-69
2023/05/31 07:06:43;;;;;;;;;;;18.00;74.40;;;;;;5002688;28;19913;-68
2023/05/31 07:09:08;;;;;;;;;;;18.10;74.00;;;;;;5013205;28;19937;-68
2023/05/31 07:11:34;;;;;;;;;;;18.20;73.60;;;;;;4997227;28;19949;-69
2023/05/31 07:14:01;;;;;;;;;;;18.20;74.20;;;;;;4996805;28;19910;-70
2023/05/31 07:16:27;;;;;;;;;;;18.20;74.20;;;;;;4996460;28;19926;-68
2023/05/31 07:18:53;;;;;;;;;;;18.40;73.50;;;;;;4995598;28;20275;-70
2023/05/31 07:21:18;;;;;;;;;;;18.60;72.80;;;;;;4996180;28;20363;-69
2023/05/31 07:23:43;;;;;;;;;;;18.70;73.30;;;;;;4996952;28;19917;-69
2023/05/31 07:26:09;;;;;;;;;;;18.80;73.00;;;;;;4996938;28;20371;-71
2023/05/31 07:28:34;;;;;;;;;;;18.80;72.80;;;;;;4997508;28;20469;-70
2023/05/31 07:31:00;;;;;;;;;;;18.80;72.90;;;;;;4995051;28;20338;-70
2023/05/31 07:33:26;;;;;;;;;;;19.00;72.10;;;;;;4995389;28;20378;-69
2023/05/31 07:35:51;;;;;;;;;;;19.10;72.40;;;;;;4996865;28;19909;-69
2023/05/31 07:38:17;;;;;;;;;;;19.10;72.50;;;;;;4996622;28;19913;-70
2023/05/31 07:40:42;;;;;;;;;;;19.20;72.00;;;;;;4996321;28;19910;-70
2023/05/31 07:43:08;;;;;;;;;;;19.30;71.90;;;;;;4996065;28;19956;-69
2023/05/31 07:45:33;;;;;;;;;;;19.50;71.40;;;;;;4995779;28;20366;-70
2023/05/31 07:47:59;;;;;;;;;;;19.60;71.10;;;;;;4995986;28;19913;-70
2023/05/31 07:50:25;;;;;;;;;;;19.80;70.20;;;;;;4994547;28;19917;-70
2023/05/31 07:52:51;;;;;;;;;;;19.80;70.60;;;;;;4992068;28;19914;-70
2023/05/31 07:55:17;;;;;;;;;;;19.90;69.90;;;;;;4996565;28;19960;-70
2023/05/31 07:57:43;;;;;;;;;;;20.10;69.80;;;;;;4995116;28;19917;-68
2023/05/31 08:00:11;;;;;;;;;;;20.30;69.50;;;;;;4996074;28;19917;-70
2023/05/31 08:02:37;;;;;;;;;;;20.40;69.50;;;;;;4995734;28;20289;-71
2023/05/31 08:05:04;;;;;;;;;;;20.60;68.80;;;;;;4994531;28;19910;-69
2023/05/31 08:07:30;;;;;;;;;;;20.70;68.40;;;;;;4994527;28;19910;-70
2023/05/31 08:09:55;;;;;;;;;;;21.70;67.40;;;;;;4996267;28;19909;-69
2023/05/31 08:12:21;;;;;;;;;;;23.80;64.50;;;;;;4990362;28;20461;-70
2023/05/31 08:14:46;;;;;;;;;;;26.00;60.80;;;;;;5001423;28;19917;-71
2023/05/31 08:17:12;;;;;;;;;;;27.10;59.00;;;;;;5014817;28;19921;-71
2023/05/31 08:19:38;;;;;;;;;;;28.60;57.40;;;;;;4998780;28;19910;-71
2023/05/31 08:22:04;;;;;;;;;;;29.70;55.70;;;;;;4984602;28;20331;-72
2023/05/31 08:24:30;;;;;;;;;;;29.70;55.00;;;;;;4974771;28;20264;-71
2023/05/31 08:26:56;;;;;;;;;;;29.10;55.40;;;;;;4974116;28;19910;-72
2023/05/31 08:29:22;;;;;;;;;;;29.70;55.30;;;;;;4975626;28;19972;-71
2023/05/31 08:31:47;;;;;;;;;;;30.90;54.30;;;;;;4975618;28;19932;-71
2023/05/31 08:34:13;;;;;;;;;;;31.70;53.30;;;;;;4975457;28;19950;-73
2023/05/31 08:36:40;;;;;;;;;;;32.30;52.80;;;;;;4974789;28;19972;-72
2023/05/31 08:39:07;;;;;;;;;;;31.20;53.10;;;;;;4976901;28;20290;-72
2023/05/31 08:41:38;;;;;;;;;;;32.10;53.00;;;;;;4978625;28;19910;-73
2023/05/31 08:44:04;;;;;;;;;;;32.50;52.20;;;;;;4974813;28;19918;-72
2023/05/31 08:46:30;;;;;;;;;;;32.10;52.30;;;;;;4974122;28;20012;-73
2023/05/31 08:49:05;;;;;;;;;;;31.80;52.80;;;;;;4975712;28;19964;-71
2023/05/31 08:51:31;;;;;;;;;;;32.50;52.10;;;;;;4975801;28;19937;-73
2023/05/31 08:53:57;;;;;;;;;;;33.40;51.60;;;;;;4975663;28;20009;-72
2023/05/31 08:56:23;;;;;;;;;;;32.40;51.50;;;;;;4974379;28;19945;-72
2023/05/31 08:58:49;;;;;;;;;;;32.30;51.50;;;;;;4974300;28;19937;-72
2023/05/31 09:01:15;;;;;;;;;;;32.90;51.50;;;;;;4975917;28;19957;-72
2023/05/31 09:03:42;;;;;;;;;;;32.80;51.40;;;;;;4974249;28;19910;-73
2023/05/31 09:06:07;;;;;;;;;;;32.80;51.20;;;;;;4975968;28;19910;-73
2023/05/31 09:08:33;;;;;;;;;;;33.70;51.10;;;;;;4973699;28;19921;-73
2023/05/31 09:11:00;;;;;;;;;;;33.50;50.90;;;;;;4973910;28;19916;-73
2023/05/31 09:13:25;;;;;;;;;;;34.00;50.90;;;;;;4975507;28;19918;-73
2023/05/31 09:15:52;;;;;;;;;;;34.00;50.30;;;;;;4974997;28;20393;-72
2023/05/31 09:18:21;;;;;;;;;;;34.00;50.20;;;;;;4974535;28;19945;-70
2023/05/31 09:20:47;;;;;;;;;;;33.10;50.60;;;;;;4975136;28;19910;-72
2023/05/31 09:23:13;;;;;;;;;;;33.00;51.50;;;;;;4975095;28;19910;-74
2023/05/31 09:25:49;;;;;;;;;;;33.20;50.80;;;;;;4975250;28;19910;-72
2023/05/31 09:28:16;;;;;;;;;;;33.40;51.00;;;;;;4973780;28;20363;-72
2023/05/31 09:30:42;;;;;;;;;;;33.20;51.00;;;;;;4974747;28;19957;-72
2023/05/31 09:33:07;;;;;;;;;;;32.80;51.10;;;;;;4974611;28;19910;-72
2023/05/31 09:35:33;;;;;;;;;;;33.60;51.00;;;;;;4975098;28;19941;-72
2023/05/31 09:38:03;;;;;;;;;;;33.80;50.50;;;;;;4973644;28;19914;-72
2023/05/31 09:40:30;;;;;;;;;;;33.50;50.50;;;;;;4974812;28;19910;-72
2023/05/31 09:42:55;;;;;;;;;;;33.40;49.90;;;;;;4974798;28;20394;-72
2023/05/31 09:45:21;;;;;;;;;;;32.50;51.00;;;;;;4974392;28;19910;-72
2023/05/31 09:47:47;;;;;;;;;;;32.40;51.10;;;;;;4973574;28;19910;-72
2023/05/31 09:50:22;;;;;;;;;;;32.40;51.30;;;;;;4974606;28;19997;-72
2023/05/31 09:52:49;;;;;;;;;;;33.00;51.00;;;;;;4973581;28;19910;-72
2023/05/31 09:55:15;;;;;;;;;;;33.30;50.70;;;;;;4974536;28;19949;-72
2023/05/31 09:57:41;;;;;;;;;;;33.60;50.10;;;;;;4975043;28;19937;-73
2023/05/31 10:00:29;;;;;;;;;;;34.10;49.90;;;;;;4973164;28;20351;-71
2023/05/31 10:02:54;;;;;;;;;;;34.20;50.20;;;;;;4974367;28;19914;-72
2023/05/31 10:05:20;;;;;;;;;;;33.90;49.80;;;;;;4974806;28;19911;-72
2023/05/31 10:07:49;;;;;;;;;;;33.60;49.70;;;;;;4975638;28;20437;-72
2023/05/31 10:10:19;;;;;;;;;;;32.90;50.20;;;;;;4974974;28;19973;-73
2023/05/31 10:12:50;;;;;;;;;;;33.70;50.30;;;;;;4974605;28;20004;-71
2023/05/31 10:18:10;;;;;;;;;;;34.80;49.20;;;;;;5010974;28;19925;-66
2023/05/31 10:20:41;;;;;;;;;;;34.00;49.30;;;;;;5009071;28;19909;-66
2023/05/31 10:23:14;;;;;;;;;;;34.40;49.10;;;;;;5013543;28;19976;-65
2023/05/31 10:25:58;;;;;;;;;;;33.90;48.30;;;;;;5013851;28;19949;-65
2023/05/31 10:28:27;;;;;;;;;;;33.40;48.20;;;;;;5015217;28;19952;-66
2023/05/31 10:30:53;;;;;;;;;;;32.90;48.80;;;;;;5014520;28;19910;-66
2023/05/31 10:33:19;;;;;;;;;;;31.90;48.90;;;;;;5014457;28;19909;-66
2023/05/31 10:35:45;;;;;;;;;;;31.00;49.60;;;;;;5014308;28;19910;-66
2023/05/31 10:38:11;;;;;;;;;;;31.30;49.60;;;;;;5012607;28;20381;-66
2023/05/31 10:40:43;;;;;;;;;;;32.00;49.00;;;;;;5012726;28;19910;-66
2023/05/31 10:43:14;;;;;;;;;;;32.30;48.80;;;;;;5013780;28;20055;-66
2023/05/31 10:45:41;;;;;;;;;;;32.60;48.50;;;;;;5012073;28;19910;-66
2023/05/31 10:48:06;;;;;;;;;;;32.20;48.40;;;;;;5011769;28;20396;-66
2023/05/31 10:50:32;;;;;;;;;;;32.30;48.80;;;;;;5013637;28;19909;-66
2023/05/31 10:53:11;;;;;;;;;;;32.20;48.20;;;;;;5014182;28;20436;-66
2023/05/31 10:55:40;;;;;;;;;;;31.70;48.40;;;;;;5013560;28;19917;-67
2023/05/31 10:58:05;;;;;;;;;;;32.00;48.40;;;;;;5014981;28;20283;-66
2023/05/31 11:00:31;;;;;;;;;;;31.70;48.50;;;;;;5017377;28;19941;-67
2023/05/31 11:02:58;;;;;;;;;;;31.40;48.10;;;;;;5015353;28;19964;-66
2023/05/31 11:05:25;;;;;;;;;;;31.40;48.50;;;;;;5016939;28;19909;-67
2023/05/31 11:07:51;;;;;;;;;;;31.50;48.20;;;;;;5016981;28;19911;-66
2023/05/31 11:10:27;;;;;;;;;;;30.30;48.00;;;;;;5017053;28;19913;-66
2023/05/31 11:12:55;;;;;;;;;;;28.60;50.00;;;;;;5017527;28;19914;-66
2023/05/31 11:15:20;;;;;;;;;;;27.50;50.90;;;;;;5016896;28;19956;-66
2023/05/31 11:17:53;;;;;;;;;;;26.60;52.00;;;;;;5015035;28;19917;-66
2023/05/31 11:20:19;;;;;;;;;;;26.40;52.70;;;;;;5016678;28;19909;-67
2023/05/31 11:22:45;;;;;;;;;;;26.20;53.40;;;;;;5016563;28;19983;-66
2023/05/31 11:25:18;;;;;;;;;;;26.00;53.40;;;;;;5015460;28;19967;-67
2023/05/31 11:27:48;;;;;;;;;;;25.90;53.70;;;;;;5016485;28;20008;-66
2023/05/31 11:30:14;;;;;;;;;;;25.80;54.00;;;;;;5016402;28;19916;-66
2023/05/31 11:32:39;;;;;;;;;;;25.70;53.40;;;;;;5014794;28;19910;-67
2023/05/31 11:35:06;;;;;;;;;;;25.60;54.00;;;;;;5016344;28;19975;-66
2023/05/31 11:37:36;;;;;;;;;;;25.60;53.70;;;;;;5016295;28;20394;-67
2023/05/31 11:40:04;;;;;;;;;;;25.60;54.20;;;;;;5016880;28;19936;-66
2023/05/31 11:42:30;;;;;;;;;;;25.50;54.10;;;;;;5016138;28;19916;-66
2023/05/31 11:44:56;;;;;;;;;;;25.60;54.30;;;;;;5016373;28;19952;-65
2023/05/31 11:47:25;;;;;;;;;;;25.70;54.60;;;;;;5015269;28;20352;-65
2023/05/31 11:49:50;;;;;;;;;;;25.60;54.90;;;;;;5016339;28;20317;-66
2023/05/31 11:52:17;;;;;;;;;;;25.60;55.30;;;;;;5016108;28;19910;-66
2023/05/31 11:54:44;;;;;;;;;;;25.60;54.60;;;;;;5016082;28;19909;-66
2023/05/31 11:57:10;;;;;;;;;;;25.50;54.60;;;;;;5015814;28;19916;-66
2023/05/31 11:59:36;;;;;;;;;;;25.40;54.50;;;;;;5015921;28;19909;-66
2023/05/31 12:02:02;;;;;;;;;;;25.30;54.90;;;;;;5015950;28;19909;-66
2023/05/31 12:04:29;;;;;;;;;;;25.40;55.20;;;;;;5015923;28;20370;-65
2023/05/31 12:06:54;;;;;;;;;;;25.40;55.90;;;;;;5015728;28;19910;-65
2023/05/31 12:09:22;;;;;;;;;;;25.50;55.50;;;;;;5016002;28;19910;-66
2023/05/31 12:11:48;;;;;;;;;;;25.40;55.50;;;;;;5014497;28;19909;-66
2023/05/31 12:14:14;;;;;;;;;;;25.40;55.20;;;;;;5014756;28;19921;-66
2023/05/31 12:16:41;;;;;;;;;;;25.30;55.70;;;;;;5015669;28;19917;-66
2023/05/31 12:19:12;;;;;;;;;;;25.40;55.80;;;;;;5015790;28;19968;-66
2023/05/31 12:21:38;;;;;;;;;;;25.40;55.60;;;;;;5015466;28;20324;-66
2023/05/31 12:24:10;;;;;;;;;;;25.30;55.60;;;;;;5016183;28;19909;-70
2023/05/31 12:26:36;;;;;;;;;;;25.30;55.70;;;;;;5016121;28;19913;-69
2023/05/31 12:29:02;;;;;;;;;;;25.30;55.80;;;;;;5014635;28;20236;-69
2023/05/31 12:31:31;;;;;;;;;;;25.20;55.50;;;;;;5016216;28;19963;-68
2023/05/31 12:34:05;;;;;;;;;;;25.20;55.80;;;;;;5017616;28;20315;-70
2023/05/31 12:36:40;;;;;;;;;;;25.40;55.50;;;;;;5018807;28;19917;-66
2023/05/31 12:39:12;;;;;;;;;;;25.30;55.30;;;;;;5016884;28;20286;-68
2023/05/31 12:41:41;;;;;;;;;;;25.40;55.80;;;;;;5016332;28;19909;-68
2023/05/31 12:44:07;;;;;;;;;;;25.40;55.60;;;;;;5018169;28;20425;-71
2023/05/31 12:46:36;;;;;;;;;;;25.40;55.40;;;;;;5022342;28;19947;-68
2023/05/31 12:49:13;;;;;;;;;;;25.40;55.10;;;;;;5015988;28;19917;-66
2023/05/31 12:51:38;;;;;;;;;;;25.40;55.20;;;;;;5013085;28;20370;-66
2023/05/31 12:54:09;;;;;;;;;;;25.50;55.10;;;;;;5015238;28;19964;-66
2023/05/31 12:56:34;;;;;;;;;;;25.40;54.90;;;;;;5015344;28;19909;-67
2023/05/31 12:59:00;;;;;;;;;;;25.40;55.30;;;;;;5014973;28;19936;-67
2023/05/31 13:01:27;;;;;;;;;;;25.50;55.50;;;;;;5014723;28;20330;-67
2023/05/31 13:03:52;;;;;;;;;;;25.50;54.70;;;;;;5013256;28;20439;-67
2023/05/31 13:06:18;;;;;;;;;;;25.50;55.30;;;;;;5014890;28;19992;-67
2023/05/31 13:08:44;;;;;;;;;;;25.50;54.60;;;;;;5014979;28;19910;-66
2023/05/31 13:11:09;;;;;;;;;;;25.50;55.10;;;;;;5013263;28;20382;-66
2023/05/31 13:13:35;;;;;;;;;;;25.60;55.10;;;;;;5014369;28;20369;-66
2023/05/31 13:16:00;;;;;;;;;;;25.70;54.50;;;;;;5014308;28;19956;-67
2023/05/31 13:18:27;;;;;;;;;;;25.70;54.90;;;;;;5013964;28;19913;-66
2023/05/31 13:20:52;;;;;;;;;;;25.70;54.90;;;;;;5013917;28;19914;-66
2023/05/31 13:23:18;;;;;;;;;;;25.70;55.20;;;;;;5014266;28;19909;-66
2023/05/31 13:25:43;;;;;;;;;;;25.70;55.30;;;;;;5014520;28;19916;-66
2023/05/31 13:28:08;;;;;;;;;;;25.80;55.40;;;;;;5013687;28;19910;-67
2023/05/31 13:30:34;;;;;;;;;;;25.90;55.20;;;;;;5014832;28;19909;-67
2023/05/31 13:32:59;;;;;;;;;;;26.00;53.70;;;;;;5014422;28;19944;-66
2023/05/31 13:35:25;;;;;;;;;;;25.90;54.30;;;;;;5015109;28;20350;-67
2023/05/31 13:37:50;;;;;;;;;;;25.70;54.10;;;;;;5014104;28;19983;-66
2023/05/31 13:40:18;;;;;;;;;;;25.80;54.40;;;;;;5013885;28;21559;-66
2023/05/31 13:42:43;;;;;;;;;;;25.80;54.20;;;;;;5014508;28;19992;-66
2023/05/31 13:45:09;;;;;;;;;;;25.70;54.00;;;;;;5014230;28;19917;-66
2023/05/31 13:47:34;;;;;;;;;;;25.70;53.70;;;;;;4998000;28;19914;-66
2023/05/31 13:50:00;;;;;;;;;;;25.70;53.80;;;;;;5004756;28;19917;-65
2023/05/31 13:52:25;;;;;;;;;;;25.80;54.10;;;;;;5012598;28;19959;-66
2023/05/31 13:54:51;;;;;;;;;;;25.90;53.00;;;;;;5013902;28;19936;-67
2023/05/31 13:57:17;;;;;;;;;;;26.00;52.80;;;;;;5008341;28;19914;-66
2023/05/31 13:59:42;;;;;;;;;;;26.00;52.90;;;;;;5010097;28;20016;-68
2023/05/31 14:02:07;;;;;;;;;;;26.00;53.20;;;;;;5011790;28;19981;-67
2023/05/31 14:04:33;;;;;;;;;;;26.10;53.10;;;;;;5012893;28;20394;-66
2023/05/31 14:06:59;;;;;;;;;;;26.10;52.20;;;;;;5012808;28;19910;-67
2023/05/31 14:09:26;;;;;;;;;;;26.00;52.20;;;;;;5014139;28;19928;-67
2023/05/31 14:11:51;;;;;;;;;;;26.10;52.10;;;;;;5014107;28;19999;-67
2023/05/31 14:14:17;;;;;;;;;;;26.10;52.30;;;;;;5012924;28;20350;-67
2023/05/31 14:16:42;;;;;;;;;;;26.20;52.60;;;;;;5013487;28;19963;-67
2023/05/31 14:19:08;;;;;;;;;;;26.30;52.40;;;;;;5010231;28;19925;-66
2023/05/31 14:21:34;;;;;;;;;;;26.20;52.40;;;;;;5004939;28;19921;-67
2023/05/31 14:23:59;;;;;;;;;;;26.20;52.20;;;;;;5008998;28;19961;-67
2023/05/31 14:26:26;;;;;;;;;;;26.20;52.20;;;;;;5014121;28;20290;-67
2023/05/31 14:28:51;;;;;;;;;;;26.20;51.60;;;;;;5013089;28;19953;-66
2023/05/31 14:31:17;;;;;;;;;;;26.30;51.40;;;;;;5015578;28;19917;-68
2023/05/31 14:33:42;;;;;;;;;;;26.20;51.30;;;;;;5016164;28;19921;-66
2023/05/31 14:36:08;;;;;;;;;;;26.20;51.50;;;;;;5014951;28;19960;-65
2023/05/31 14:38:34;;;;;;;;;;;26.10;51.80;;;;;;5011904;28;19967;-70
2023/05/31 14:40:59;;;;;;;;;;;26.20;51.90;;;;;;5016746;28;19914;-68
2023/05/31 14:43:25;;;;;;;;;;;26.10;51.60;;;;;;5019654;28;19910;-67
2023/05/31 14:45:50;;;;;;;;;;;26.00;52.00;;;;;;5022673;28;19913;-68
2023/05/31 14:48:16;;;;;;;;;;;26.10;52.10;;;;;;5021105;28;20007;-69
2023/05/31 14:50:41;;;;;;;;;;;26.10;51.60;;;;;;5020248;28;20337;-70
2023/05/31 14:53:11;;;;;;;;;;;26.10;51.80;;;;;;5019483;28;19910;-66
2023/05/31 14:55:37;;;;;;;;;;;26.10;51.90;;;;;;5017025;28;19913;-65
2023/05/31 14:58:02;;;;;;;;;;;26.20;51.20;;;;;;5018538;28;19914;-65
2023/05/31 15:00:28;;;;;;;;;;;26.20;50.80;;;;;;5019330;28;19909;-65
2023/05/31 15:02:53;;;;;;;;;;;26.20;50.90;;;;;;5019996;28;19910;-66
2023/05/31 15:05:18;;;;;;;;;;;26.20;50.50;;;;;;5015213;28;19973;-66
2023/05/31 15:07:44;;;;;;;;;;;26.30;50.70;;;;;;5017222;28;19968;-66
2023/05/31 15:10:09;;;;;;;;;;;26.30;51.40;;;;;;5018849;28;19909;-67
2023/05/31 15:12:35;;;;;;;;;;;26.30;51.50;;;;;;5013396;28;19909;-66
2023/05/31 15:15:00;;;;;;;;;;;26.30;51.70;;;;;;4998669;28;19910;-66
2023/05/31 15:17:26;;;;;;;;;;;26.30;50.80;;;;;;5007842;28;20019;-65
2023/05/31 15:19:51;;;;;;;;;;;26.20;50.50;;;;;;5018471;28;19914;-70
2023/05/31 15:22:17;;;;;;;;;;;26.10;50.40;;;;;;5014584;28;19914;-69
2023/05/31 15:24:43;;;;;;;;;;;26.10;50.50;;;;;;5003787;28;20371;-69
2023/05/31 15:27:10;;;;;;;;;;;26.00;50.40;;;;;;4996817;28;20290;-69
2023/05/31 15:29:36;;;;;;;;;;;26.10;50.70;;;;;;4996906;28;19910;-68
2023/05/31 15:32:03;;;;;;;;;;;26.20;51.00;;;;;;4995386;28;19932;-63
2023/05/31 15:34:29;;;;;;;;;;;26.20;50.40;;;;;;4996843;28;20367;-66
2023/05/31 15:36:54;;;;;;;;;;;26.20;50.60;;;;;;5005611;28;19916;-68
2023/05/31 15:39:20;;;;;;;;;;;26.20;50.40;;;;;;5006832;28;20019;-68
2023/05/31 15:41:46;;;;;;;;;;;26.20;50.70;;;;;;5008936;28;19996;-69
2023/05/31 15:44:12;;;;;;;;;;;26.20;49.50;;;;;;5011887;28;19914;-69
2023/05/31 15:46:42;;;;;;;;;;;26.20;49.60;;;;;;5010238;28;19920;-69
2023/05/31 15:49:10;;;;;;;;;;;26.20;49.50;;;;;;5011944;28;20834;-69
2023/05/31 15:51:36;;;;;;;;;;;26.20;49.80;;;;;;5014934;28;19909;-69
2023/05/31 15:54:02;;;;;;;;;;;26.20;49.50;;;;;;5016419;28;20004;-69
2023/05/31 15:56:28;;;;;;;;;;;26.10;49.50;;;;;;5016579;28;19967;-69
2023/05/31 15:58:53;;;;;;;;;;;26.10;49.90;;;;;;5013400;28;20433;-69
2023/05/31 16:01:19;;;;;;;;;;;26.10;50.10;;;;;;4997962;28;19913;-69
2023/05/31 16:03:44;;;;;;;;;;;26.00;49.60;;;;;;4996616;28;20409;-69
2023/05/31 16:06:10;;;;;;;;;;;26.00;49.90;;;;;;4996706;28;19996;-69
2023/05/31 16:08:35;;;;;;;;;;;25.90;49.80;;;;;;5014122;28;20011;-68
2023/05/31 16:11:01;;;;;;;;;;;25.80;49.60;;;;;;5015856;28;20400;-69
2023/05/31 16:13:26;;;;;;;;;;;25.90;50.10;;;;;;5016174;28;19920;-69
2023/05/31 16:15:51;;;;;;;;;;;25.90;50.20;;;;;;5040793;22;19913;-67
2023/05/31 16:18:17;;;;;;;;;;;26.00;50.50;;;;;;4989494;28;20338;-69
2023/05/31 16:20:42;;;;;;;;;;;26.00;50.00;;;;;;4971845;28;19914;-70
2023/05/31 16:23:08;;;;;;;;;;;25.90;49.80;;;;;;4958905;28;19964;-67
2023/05/31 16:25:33;;;;;;;;;;;25.90;49.80;;;;;;4967739;28;19922;-67
2023/05/31 16:27:59;;;;;;;;;;;25.80;49.60;;;;;;4980833;28;20305;-67
2023/05/31 16:30:24;;;;;;;;;;;25.80;49.40;;;;;;4979918;28;19917;-68
2023/05/31 16:32:50;;;;;;;;;;;25.70;49.40;;;;;;4975398;28;20009;-68
2023/05/31 16:35:16;;;;;;;;;;;25.70;49.70;;;;;;4976540;28;19922;-68
2023/05/31 16:37:41;;;;;;;;;;;25.80;50.00;;;;;;4976126;28;19980;-68
2023/05/31 16:40:07;;;;;;;;;;;25.70;49.90;;;;;;4974977;28;19914;-66
2023/05/31 16:42:32;;;;;;;;;;;25.70;49.90;;;;;;4975997;28;19948;-66
2023/05/31 16:44:58;;;;;;;;;;;25.60;49.90;;;;;;4976895;28;19910;-69
2023/05/31 16:47:24;;;;;;;;;;;25.70;50.10;;;;;;4987662;28;20024;-68
2023/05/31 16:49:50;;;;;;;;;;;25.60;49.70;;;;;;4997328;28;20402;-71
2023/05/31 16:52:16;;;;;;;;;;;25.60;50.10;;;;;;4996306;28;19914;-70
2023/05/31 16:54:41;;;;;;;;;;;25.60;50.30;;;;;;4995900;28;19920;-69
2023/05/31 16:57:07;;;;;;;;;;;25.60;50.40;;;;;;4978247;28;19914;-69
2023/05/31 16:59:32;;;;;;;;;;;25.60;50.50;;;;;;4977030;28;19918;-69
2023/05/31 17:01:58;;;;;;;;;;;25.60;51.00;;;;;;4967997;28;19914;-71
2023/05/31 17:04:24;;;;;;;;;;;25.60;51.30;;;;;;4972944;28;19962;-66
2023/05/31 17:06:49;;;;;;;;;;;25.50;51.10;;;;;;4969647;28;19918;-68
2023/05/31 17:09:15;;;;;;;;;;;25.50;51.20;;;;;;4957424;28;19918;-70
2023/05/31 17:11:41;;;;;;;;;;;25.40;51.40;;;;;;4960641;28;20334;-67
2023/05/31 17:14:06;;;;;;;;;;;25.40;51.40;;;;;;4965786;28;19917;-68
2023/05/31 17:16:32;;;;;;;;;;;25.40;51.70;;;;;;4970768;28;20000;-71
2023/05/31 17:18:57;;;;;;;;;;;25.40;51.90;;;;;;4965845;28;19918;-71
2023/05/31 17:21:23;;;;;;;;;;;25.40;51.70;;;;;;4974363;28;19914;-67
2023/05/31 17:23:48;;;;;;;;;;;25.40;51.60;;;;;;4974947;28;19910;-68
2023/05/31 17:26:15;;;;;;;;;;;25.30;51.90;;;;;;4975851;28;19910;-69
2023/05/31 17:28:42;;;;;;;;;;;25.30;52.40;;;;;;4969725;28;19911;-65
2023/05/31 17:31:07;;;;;;;;;;;25.30;52.20;;;;;;4974846;28;19910;-66
2023/05/31 17:33:33;;;;;;;;;;;25.30;51.80;;;;;;4975376;28;20042;-65
2023/05/31 17:35:59;;;;;;;;;;;25.20;51.80;;;;;;4976062;28;20366;-67
2023/05/31 17:38:24;;;;;;;;;;;25.20;52.10;;;;;;4974298;28;19921;-68
2023/05/31 17:40:51;;;;;;;;;;;25.10;51.90;;;;;;4974539;28;20004;-68
2023/05/31 17:43:16;;;;;;;;;;;25.10;52.30;;;;;;4975588;28;20322;-67
2023/05/31 17:45:43;;;;;;;;;;;25.10;52.60;;;;;;4975549;28;19932;-66
2023/05/31 17:48:08;;;;;;;;;;;25.10;52.80;;;;;;4992494;28;19909;-67
2023/05/31 17:50:34;;;;;;;;;;;25.10;52.80;;;;;;4967956;28;19915;-66
2023/05/31 17:52:59;;;;;;;;;;;25.10;52.40;;;;;;4955804;29;19922;-65
2023/05/31 17:55:25;;;;;;;;;;;25.00;52.80;;;;;;4955578;29;20260;-65
2023/05/31 17:57:51;;;;;;;;;;;25.00;52.90;;;;;;4960597;28;20386;-66
2023/05/31 18:00:17;;;;;;;;;;;24.90;53.00;;;;;;4975254;28;19910;-65
2023/05/31 18:02:42;;;;;;;;;;;24.90;53.30;;;;;;4972486;28;19914;-65
2023/05/31 18:05:08;;;;;;;;;;;24.80;53.10;;;;;;4965730;28;19910;-64
2023/05/31 18:07:34;;;;;;;;;;;24.80;52.80;;;;;;4973057;28;20467;-65
2023/05/31 18:09:59;;;;;;;;;;;24.80;52.80;;;;;;4977726;28;20319;-65
2023/05/31 18:12:25;;;;;;;;;;;24.80;52.90;;;;;;4978480;28;19993;-64
2023/05/31 18:14:51;;;;;;;;;;;24.70;52.90;;;;;;4978169;28;19937;-65